createdAt,value
2023-02-05T00:00:01.076Z,-4.08
2023-02-05T00:02:29.252Z,-4.07
2023-02-05T00:04:57.130Z,-4.06
2023-02-05T00:07:25.025Z,-4.07
2023-02-05T00:09:52.922Z,-4.08
2023-02-05T00:12:20.914Z,-4.10
2023-02-05T00:14:49.134Z,-4.11
2023-02-05T00:17:17.073Z,-4.11
2023-02-05T00:19:44.862Z,-4.10
2023-02-05T00:22:12.638Z,-4.05
2023-02-05T00:24:40.693Z,-3.99
2023-02-05T00:27:10.269Z,-3.92
2023-02-05T00:29:38.348Z,-3.86
2023-02-05T00:32:06.437Z,-3.81
2023-02-05T00:34:35.368Z,-3.77
2023-02-05T00:37:03.172Z,-3.76
2023-02-05T00:39:31.282Z,-3.76
2023-02-05T00:41:59.384Z,-3.77
2023-02-05T00:44:27.696Z,-3.79
2023-02-05T00:46:55.665Z,-3.81
2023-02-05T00:49:23.698Z,-3.85
2023-02-05T00:51:52.478Z,-3.86
2023-02-05T00:54:20.458Z,-3.87
2023-02-05T00:56:48.401Z,-3.87
2023-02-05T00:59:16.718Z,-3.85
2023-02-05T01:01:44.697Z,-3.82
2023-02-05T01:04:12.716Z,-3.79
2023-02-05T01:06:41.568Z,-3.75
2023-02-05T01:09:10.530Z,-3.72
2023-02-05T01:11:38.641Z,-3.71
2023-02-05T01:14:07.431Z,-3.71
2023-02-05T01:16:35.436Z,-3.71
2023-02-05T01:19:03.956Z,-3.73
2023-02-05T01:21:31.870Z,-3.75
2023-02-05T01:24:01.637Z,-3.76
2023-02-05T01:26:29.758Z,-3.77
2023-02-05T01:28:58.135Z,-3.77
2023-02-05T01:31:28.285Z,-3.75
2023-02-05T01:33:56.480Z,-3.72
2023-02-05T01:36:24.508Z,-3.68
2023-02-05T01:38:54.355Z,-3.65
2023-02-05T01:41:24.280Z,-3.63
2023-02-05T01:44:14.200Z,-3.62
2023-02-05T01:46:43.142Z,-3.64
2023-02-05T01:49:16.044Z,-3.66
2023-02-05T01:51:43.876Z,-3.71
2023-02-05T01:54:12.248Z,-3.75
2023-02-05T01:56:46.745Z,-3.78
2023-02-05T01:59:17.542Z,-3.79
2023-02-05T02:01:46.605Z,-3.79
2023-02-05T02:04:17.037Z,-3.77
2023-02-05T02:06:45.250Z,-3.73
2023-02-05T02:09:13.727Z,-3.68
2023-02-05T02:11:42.135Z,-3.63
2023-02-05T02:14:10.316Z,-3.59
2023-02-05T02:16:38.406Z,-3.57
2023-02-05T02:19:10.995Z,-3.56
2023-02-05T02:21:56.111Z,-3.57
2023-02-05T02:24:35.396Z,-3.60
2023-02-05T02:27:09.402Z,-3.64
2023-02-05T02:29:41.674Z,-3.68
2023-02-05T02:32:16.118Z,-3.73
2023-02-05T02:34:47.329Z,-3.75
2023-02-05T02:37:21.317Z,-3.77
2023-02-05T02:40:16.184Z,-3.78
2023-02-05T02:42:59.010Z,-3.75
2023-02-05T02:45:29.496Z,-3.73
2023-02-05T02:47:58.287Z,-3.69
2023-02-05T02:50:32.854Z,-3.66
2023-02-05T02:53:09.975Z,-3.64
2023-02-05T02:55:39.470Z,-3.64
2023-02-05T02:58:09.614Z,-3.65
2023-02-05T03:00:38.060Z,-3.66
2023-02-05T03:03:07.047Z,-3.69
2023-02-05T03:05:35.934Z,-3.72
2023-02-05T03:08:10.626Z,-3.74
2023-02-05T03:10:44.736Z,-3.77
2023-02-05T03:13:19.552Z,-3.76
2023-02-05T03:15:51.609Z,-3.73
2023-02-05T03:18:20.024Z,-3.68
2023-02-05T03:20:57.215Z,-3.64
2023-02-05T03:23:26.602Z,-3.60
2023-02-05T03:25:55.616Z,-3.58
2023-02-05T03:28:28.821Z,-3.57
2023-02-05T03:31:22.002Z,-3.58
2023-02-05T03:33:49.979Z,-3.58
2023-02-05T03:36:41.338Z,-3.60
2023-02-05T03:39:34.560Z,-3.64
2023-02-05T03:42:06.557Z,-3.67
2023-02-05T03:44:51.657Z,-3.70
2023-02-05T03:48:10.040Z,-3.71
2023-02-05T03:50:41.685Z,-3.69
2023-02-05T03:53:41.558Z,-3.65
2023-02-05T03:56:24.847Z,-3.59
2023-02-05T03:58:55.352Z,-3.53
2023-02-05T04:01:25.377Z,-3.48
2023-02-05T04:03:53.441Z,-3.46
2023-02-05T04:06:22.213Z,-3.44
2023-02-05T04:08:51.471Z,-3.45
2023-02-05T04:11:19.681Z,-3.47
2023-02-05T04:13:48.798Z,-3.49
2023-02-05T04:16:17.191Z,-3.52
2023-02-05T04:18:45.561Z,-3.54
2023-02-05T04:21:13.508Z,-3.56
2023-02-05T04:23:42.500Z,-3.58
2023-02-05T04:26:11.285Z,-3.58
2023-02-05T04:28:46.641Z,-3.55
2023-02-05T04:31:15.095Z,-3.52
2023-02-05T04:33:43.650Z,-3.47
2023-02-05T04:36:14.361Z,-3.42
2023-02-05T04:38:42.490Z,-3.39
2023-02-05T04:41:10.482Z,-3.37
2023-02-05T04:43:38.774Z,-3.37
2023-02-05T04:46:09.904Z,-3.36
2023-02-05T04:48:38.500Z,-3.38
2023-02-05T04:51:10.459Z,-3.40
2023-02-05T04:53:39.519Z,-3.41
2023-02-05T04:56:14.961Z,-3.43
2023-02-05T04:58:43.726Z,-3.43
2023-02-05T05:01:16.683Z,-3.41
2023-02-05T05:03:44.768Z,-3.37
2023-02-05T05:06:12.936Z,-3.33
2023-02-05T05:08:41.051Z,-3.30
2023-02-05T05:11:17.460Z,-3.27
2023-02-05T05:13:45.831Z,-3.25
2023-02-05T05:16:13.850Z,-3.25
2023-02-05T05:18:42.314Z,-3.28
2023-02-05T05:21:10.614Z,-3.30
2023-02-05T05:23:38.811Z,-3.32
2023-02-05T05:26:08.059Z,-3.36
2023-02-05T05:28:36.705Z,-3.38
2023-02-05T05:31:19.701Z,-3.38
2023-02-05T05:33:47.846Z,-3.38
2023-02-05T05:36:16.070Z,-3.35
2023-02-05T05:38:44.239Z,-3.30
2023-02-05T05:41:36.651Z,-3.25
2023-02-05T05:44:04.851Z,-3.19
2023-02-05T05:46:33.063Z,-3.15
2023-02-05T05:49:01.592Z,-3.12
2023-02-05T05:51:30.124Z,-3.11
2023-02-05T05:53:58.027Z,-3.10
2023-02-05T05:56:25.995Z,-3.11
2023-02-05T05:58:53.930Z,-3.12
2023-02-05T06:01:22.959Z,-3.15
2023-02-05T06:03:50.872Z,-3.15
2023-02-05T06:06:18.719Z,-3.14
2023-02-05T06:08:46.659Z,-3.11
2023-02-05T06:11:14.565Z,-3.06
2023-02-05T06:13:44.619Z,-3.01
2023-02-05T06:16:13.313Z,-2.97
2023-02-05T06:18:41.270Z,-2.93
2023-02-05T06:21:11.384Z,-2.91
2023-02-05T06:23:39.309Z,-2.90
2023-02-05T06:26:07.338Z,-2.89
2023-02-05T06:28:35.331Z,-2.90
2023-02-05T06:31:03.541Z,-2.91
2023-02-05T06:33:31.674Z,-2.91
2023-02-05T06:35:59.696Z,-2.91
2023-02-05T06:38:27.696Z,-2.90
2023-02-05T06:40:55.585Z,-2.86
2023-02-05T06:43:23.454Z,-2.82
2023-02-05T06:45:51.539Z,-2.74
2023-02-05T06:48:19.444Z,-2.68
2023-02-05T06:50:47.288Z,-2.63
2023-02-05T06:53:15.152Z,-2.59
2023-02-05T06:55:43.030Z,-2.56
2023-02-05T06:58:11.663Z,-2.53
2023-02-05T07:00:39.490Z,-2.53
2023-02-05T07:03:07.343Z,-2.51
2023-02-05T07:05:35.501Z,-2.49
2023-02-05T07:08:05.413Z,-2.47
2023-02-05T07:10:33.753Z,-2.44
2023-02-05T07:13:01.734Z,-2.36
2023-02-05T07:15:30.317Z,-2.30
2023-02-05T07:17:58.377Z,-2.23
2023-02-05T07:20:26.241Z,-2.15
2023-02-05T07:22:54.015Z,-2.08
2023-02-05T07:25:22.059Z,-2.01
2023-02-05T07:27:50.182Z,-1.95
2023-02-05T07:30:18.630Z,-1.89
2023-02-05T07:32:46.546Z,-1.83
2023-02-05T07:35:14.545Z,-1.78
2023-02-05T07:37:42.750Z,-1.74
2023-02-05T07:40:11.323Z,-1.69
2023-02-05T07:42:39.647Z,-1.65
2023-02-05T07:45:09.940Z,-1.57
2023-02-05T07:47:38.185Z,-1.48
2023-02-05T07:50:06.312Z,-1.37
2023-02-05T07:52:34.564Z,-1.26
2023-02-05T07:55:03.106Z,-1.16
2023-02-05T07:57:31.498Z,-1.07
2023-02-05T07:59:59.288Z,-0.99
2023-02-05T08:02:27.392Z,-0.92
2023-02-05T08:04:55.227Z,-0.86
2023-02-05T08:07:23.029Z,-0.82
2023-02-05T08:09:53.231Z,-0.78
2023-02-05T08:12:21.132Z,-0.73
2023-02-05T08:14:49.012Z,-0.66
2023-02-05T08:17:17.399Z,-0.54
2023-02-05T08:19:45.337Z,-0.43
2023-02-05T08:22:14.099Z,-0.30
2023-02-05T08:24:42.054Z,-0.18
2023-02-05T08:27:10.042Z,-0.05
2023-02-05T08:29:37.916Z,0.08
2023-02-05T08:32:06.374Z,0.21
2023-02-05T08:34:34.483Z,0.30
2023-02-05T08:37:02.388Z,0.39
2023-02-05T08:39:30.737Z,0.45
2023-02-05T08:41:58.695Z,0.53
2023-02-05T08:44:28.085Z,0.61
2023-02-05T08:46:56.568Z,0.67
2023-02-05T08:49:24.455Z,0.73
2023-02-05T08:51:52.404Z,0.81
2023-02-05T08:54:20.605Z,0.96
2023-02-05T08:56:50.263Z,1.14
2023-02-05T08:59:18.575Z,1.35
2023-02-05T09:01:46.780Z,1.53
2023-02-05T09:04:16.520Z,1.71
2023-02-05T09:06:44.663Z,1.85
2023-02-05T09:09:12.908Z,1.95
2023-02-05T09:11:41.709Z,2.02
2023-02-05T09:14:10.031Z,2.07
2023-02-05T09:16:39.737Z,2.11
2023-02-05T09:19:08.361Z,2.15
2023-02-05T09:21:37.101Z,2.19
2023-02-05T09:24:05.169Z,2.21
2023-02-05T09:26:34.067Z,2.23
2023-02-05T09:29:02.323Z,2.23
2023-02-05T09:31:30.586Z,2.22
2023-02-05T09:33:58.516Z,2.20
2023-02-05T09:36:26.415Z,2.16
2023-02-05T09:39:11.847Z,2.09
2023-02-05T09:41:54.674Z,2.00
2023-02-05T09:44:44.647Z,1.88
2023-02-05T09:47:31.928Z,1.79
2023-02-05T09:50:14.794Z,1.77
2023-02-05T09:52:44.995Z,1.79
2023-02-05T09:55:41.968Z,1.85
2023-02-05T09:58:31.280Z,1.96
2023-02-05T10:01:22.613Z,2.07
2023-02-05T10:04:01.207Z,2.16
2023-02-05T10:06:41.888Z,2.21
2023-02-05T10:09:32.979Z,2.23
2023-02-05T10:12:10.341Z,2.23
2023-02-05T10:15:06.081Z,2.22
2023-02-05T10:17:51.438Z,2.19
2023-02-05T10:20:38.861Z,2.21
2023-02-05T10:23:14.913Z,2.25
2023-02-05T10:26:08.024Z,2.28
2023-02-05T10:28:50.605Z,2.27
2023-02-05T10:31:36.744Z,2.22
2023-02-05T10:34:36.493Z,2.15
2023-02-05T10:39:35.640Z,2.05
2023-02-05T10:42:09.747Z,2.03
2023-02-05T10:44:43.763Z,2.04
2023-02-05T10:47:14.350Z,2.06
2023-02-05T10:50:01.358Z,2.12
2023-02-05T10:52:29.900Z,2.17
2023-02-05T10:55:03.984Z,2.21
2023-02-05T10:57:36.788Z,2.24
2023-02-05T11:00:13.687Z,2.25
2023-02-05T11:02:43.805Z,2.26
2023-02-05T11:05:37.339Z,2.27
2023-02-05T11:08:05.275Z,2.25
2023-02-05T11:10:34.506Z,2.21
2023-02-05T11:13:05.490Z,2.15
2023-02-05T11:15:35.556Z,2.08
2023-02-05T11:18:05.605Z,2.04
2023-02-05T11:20:35.756Z,2.01
2023-02-05T11:23:07.261Z,1.98
2023-02-05T11:25:35.714Z,1.98
2023-02-05T11:28:04.132Z,1.99
2023-02-05T11:30:52.177Z,2.00
2023-02-05T11:33:21.274Z,2.02
2023-02-05T11:35:56.974Z,2.03
2023-02-05T11:38:35.334Z,2.04
2023-02-05T11:41:07.354Z,2.05
2023-02-05T11:43:36.532Z,2.09
2023-02-05T11:46:08.193Z,2.13
2023-02-05T11:48:40.605Z,2.18
2023-02-05T11:51:11.442Z,2.22
2023-02-05T11:54:02.564Z,2.23
2023-02-05T11:56:30.483Z,2.20
2023-02-05T11:59:21.936Z,2.17
2023-02-05T12:01:50.370Z,2.13
2023-02-05T12:04:19.796Z,2.11
2023-02-05T12:06:52.812Z,2.09
2023-02-05T12:09:22.993Z,2.08
2023-02-05T12:12:18.451Z,2.07
2023-02-05T12:14:54.498Z,2.08
2023-02-05T12:17:33.230Z,2.12
2023-02-05T12:20:30.269Z,2.17
2023-02-05T12:23:26.560Z,2.24
2023-02-05T12:25:57.670Z,2.28
2023-02-05T12:28:54.470Z,2.34
2023-02-05T12:31:59.890Z,2.42
2023-02-05T12:35:04.970Z,2.49
2023-02-05T12:38:11.621Z,2.54
2023-02-05T12:41:25.145Z,2.54
2023-02-05T12:43:59.432Z,2.50
2023-02-05T12:46:43.003Z,2.45
2023-02-05T12:49:21.019Z,2.38
2023-02-05T12:52:25.087Z,2.31
2023-02-05T12:55:25.488Z,2.21
2023-02-05T12:58:05.293Z,2.10
2023-02-05T13:00:54.726Z,2.01
2023-02-05T13:03:32.410Z,1.89
2023-02-05T13:06:25.950Z,1.77
2023-02-05T13:08:58.637Z,1.66
2023-02-05T13:11:41.252Z,1.57
2023-02-05T13:14:20.002Z,1.51
2023-02-05T13:16:55.250Z,1.45
2023-02-05T13:19:41.067Z,1.43
2023-02-05T13:22:47.928Z,1.42
2023-02-05T13:25:43.556Z,1.40
2023-02-05T13:28:42.420Z,1.36
2023-02-05T13:31:41.739Z,1.30
2023-02-05T13:34:12.529Z,1.24
2023-02-05T13:37:04.880Z,1.20
2023-02-05T13:40:01.144Z,1.14
2023-02-05T13:43:11.950Z,1.10
2023-02-05T13:46:06.003Z,1.06
2023-02-05T13:48:55.816Z,1.05
2023-02-05T13:51:44.315Z,1.04
2023-02-05T13:54:33.983Z,1.03
2023-02-05T16:23:59.678Z,-1.76
2023-02-05T16:26:50.500Z,-1.52
2023-02-05T16:29:47.109Z,-1.44
2023-02-05T16:32:38.314Z,-1.34
2023-02-05T16:35:07.859Z,-1.26
2023-02-05T16:37:36.642Z,-1.19
2023-02-05T16:40:06.714Z,-1.09
2023-02-05T16:42:46.163Z,-1.00
2023-02-05T16:45:18.932Z,-0.91
2023-02-05T16:48:20.329Z,-0.84
2023-02-05T16:50:48.606Z,-0.78
2023-02-05T16:53:26.583Z,-0.76
2023-02-05T16:56:09.714Z,-0.74
2023-02-05T16:58:44.574Z,-0.74
2023-02-05T17:01:13.471Z,-0.76
2023-02-05T17:03:48.326Z,-0.77
2023-02-05T17:06:17.047Z,-0.78
2023-02-05T17:08:53.011Z,-0.78
2023-02-05T17:11:38.240Z,-0.76
2023-02-05T17:14:12.396Z,-0.72
2023-02-05T17:16:42.853Z,-0.68
2023-02-05T17:19:24.530Z,-0.65
2023-02-05T17:22:17.391Z,-0.64
2023-02-05T17:24:46.203Z,-0.64
2023-02-05T17:27:38.647Z,-0.66
2023-02-05T17:30:13.970Z,-0.70
2023-02-05T17:32:41.877Z,-0.75
2023-02-05T17:35:13.871Z,-0.79
2023-02-05T17:37:41.787Z,-0.84
2023-02-05T17:40:12.467Z,-0.87
2023-02-05T17:42:40.923Z,-0.89
2023-02-05T17:45:23.394Z,-0.91
2023-02-05T17:47:51.418Z,-0.90
2023-02-05T17:50:19.409Z,-0.87
2023-02-05T17:52:47.472Z,-0.84
2023-02-05T17:55:17.655Z,-0.81
2023-02-05T17:57:45.810Z,-0.80
2023-02-05T18:00:32.665Z,-0.79
2023-02-05T18:03:00.634Z,-0.79
2023-02-05T18:05:28.889Z,-0.81
2023-02-05T18:07:57.951Z,-0.84
2023-02-05T18:10:27.904Z,-0.87
2023-02-05T18:12:57.458Z,-0.89
2023-02-05T18:15:25.651Z,-0.92
2023-02-05T18:17:54.013Z,-0.93
2023-02-05T18:20:22.073Z,-0.94
2023-02-05T18:22:50.177Z,-0.93
2023-02-05T18:25:18.185Z,-0.91
2023-02-05T18:27:48.124Z,-0.90
2023-02-05T18:30:16.293Z,-0.91
2023-02-05T18:32:45.219Z,-0.93
2023-02-05T18:35:14.715Z,-0.97
2023-02-05T18:37:43.442Z,-1.00
2023-02-05T18:40:11.838Z,-1.05
2023-02-05T18:42:41.439Z,-1.09
2023-02-05T18:45:10.021Z,-1.14
2023-02-05T18:47:38.537Z,-1.17
2023-02-05T18:50:08.770Z,-1.19
2023-02-05T18:52:38.519Z,-1.20
2023-02-05T18:55:07.671Z,-1.19
2023-02-05T18:57:35.764Z,-1.16
2023-02-05T19:00:04.159Z,-1.13
2023-02-05T19:02:34.868Z,-1.09
2023-02-05T19:05:04.029Z,-1.06
2023-02-05T19:07:31.944Z,-1.05
2023-02-05T19:10:01.478Z,-1.05
2023-02-05T19:12:31.456Z,-1.06
2023-02-05T19:14:59.579Z,-1.08
2023-02-05T19:17:29.022Z,-1.10
2023-02-05T19:19:57.152Z,-1.14
2023-02-05T19:22:26.250Z,-1.16
2023-02-05T19:24:54.154Z,-1.17
2023-02-05T19:27:23.728Z,-1.18
2023-02-05T19:29:51.697Z,-1.17
2023-02-05T19:32:19.696Z,-1.14
2023-02-05T19:34:47.941Z,-1.10
2023-02-05T19:37:18.743Z,-1.08
2023-02-05T19:39:46.687Z,-1.06
2023-02-05T19:42:15.717Z,-1.05
2023-02-05T19:44:43.727Z,-1.06
2023-02-05T19:47:12.859Z,-1.07
2023-02-05T19:49:40.957Z,-1.10
2023-02-05T19:52:09.908Z,-1.14
2023-02-05T19:54:38.187Z,-1.18
2023-02-05T19:57:06.358Z,-1.21
2023-02-05T19:59:35.038Z,-1.23
2023-02-05T20:02:02.838Z,-1.26
2023-02-05T20:04:30.837Z,-1.28
2023-02-05T20:06:59.452Z,-1.26
2023-02-05T20:09:27.904Z,-1.24
2023-02-05T20:11:56.021Z,-1.21
2023-02-05T20:14:24.689Z,-1.18
2023-02-05T20:16:53.403Z,-1.16
2023-02-05T20:19:21.303Z,-1.16
2023-02-05T20:21:49.358Z,-1.16
2023-02-05T20:24:17.384Z,-1.17
2023-02-05T20:26:47.824Z,-1.19
2023-02-05T20:29:34.932Z,-1.22
2023-02-05T20:32:03.056Z,-1.26
2023-02-05T20:34:32.358Z,-1.29
2023-02-05T20:37:05.920Z,-1.31
2023-02-05T20:39:35.238Z,-1.31
2023-02-05T20:42:03.724Z,-1.30
2023-02-05T20:44:33.815Z,-1.27
2023-02-05T20:47:03.017Z,-1.22
2023-02-05T20:49:31.121Z,-1.19
2023-02-05T20:51:58.944Z,-1.17
2023-02-05T20:54:26.947Z,-1.16
2023-02-05T20:56:59.338Z,-1.17
2023-02-05T20:59:34.464Z,-1.19
2023-02-05T21:02:02.913Z,-1.22
2023-02-05T21:04:31.575Z,-1.25
2023-02-05T21:06:59.684Z,-1.30
2023-02-05T21:09:27.752Z,-1.35
2023-02-05T21:11:55.858Z,-1.37
2023-02-05T21:14:23.841Z,-1.39
2023-02-05T21:16:51.906Z,-1.40
2023-02-05T21:19:20.652Z,-1.38
2023-02-05T21:21:49.920Z,-1.35
2023-02-05T21:24:18.460Z,-1.31
2023-02-05T21:26:47.401Z,-1.28
2023-02-05T21:29:17.726Z,-1.25
2023-02-05T21:31:47.450Z,-1.24
2023-02-05T21:34:21.700Z,-1.23
2023-02-05T21:36:49.982Z,-1.24
2023-02-05T21:39:19.984Z,-1.27
2023-02-05T21:41:48.564Z,-1.29
2023-02-05T21:44:16.648Z,-1.30
2023-02-05T21:46:45.118Z,-1.32
2023-02-05T21:49:13.366Z,-1.32
2023-02-05T21:51:42.441Z,-1.31
2023-02-05T21:54:10.699Z,-1.29
2023-02-05T21:56:40.929Z,-1.25
2023-02-05T21:59:10.103Z,-1.22
2023-02-05T22:01:38.529Z,-1.20
2023-02-05T22:04:10.326Z,-1.19
2023-02-05T22:06:38.374Z,-1.20
2023-02-05T22:09:08.493Z,-1.22
2023-02-05T22:11:38.579Z,-1.25
2023-02-05T22:14:06.975Z,-1.29
2023-02-05T22:16:35.133Z,-1.33
2023-02-05T22:19:04.680Z,-1.37
2023-02-05T22:21:38.404Z,-1.41
2023-02-05T22:24:06.649Z,-1.43
2023-02-05T22:26:36.728Z,-1.44
2023-02-05T22:29:06.385Z,-1.42
2023-02-05T22:31:35.222Z,-1.38
2023-02-05T22:34:03.503Z,-1.34
2023-02-05T22:36:34.107Z,-1.30
2023-02-05T22:39:02.143Z,-1.27
2023-02-05T22:41:32.277Z,-1.24
2023-02-05T22:44:00.598Z,-1.24
2023-02-05T22:46:29.668Z,-1.26
2023-02-05T22:48:58.480Z,-1.28
2023-02-05T22:51:33.948Z,-1.30
2023-02-05T22:54:02.157Z,-1.32
2023-02-05T22:56:30.712Z,-1.34
2023-02-05T22:59:00.244Z,-1.35
2023-02-05T23:01:32.719Z,-1.34
2023-02-05T23:04:01.452Z,-1.32
2023-02-05T23:06:34.757Z,-1.29
2023-02-05T23:09:06.583Z,-1.24
2023-02-05T23:11:34.564Z,-1.21
2023-02-05T23:14:03.481Z,-1.18
2023-02-05T23:16:33.948Z,-1.17
2023-02-05T23:19:04.358Z,-1.17
2023-02-05T23:21:33.732Z,-1.18
2023-02-05T23:24:02.792Z,-1.20
2023-02-05T23:26:32.446Z,-1.23
2023-02-05T23:29:00.550Z,-1.24
2023-02-05T23:31:28.608Z,-1.26
2023-02-05T23:33:56.767Z,-1.26
2023-02-05T23:36:24.632Z,-1.24
2023-02-05T23:38:52.531Z,-1.21
2023-02-05T23:41:35.868Z,-1.17
2023-02-05T23:44:23.036Z,-1.14
2023-02-05T23:46:51.056Z,-1.11
2023-02-05T23:49:23.272Z,-1.12
2023-02-05T23:51:53.800Z,-1.13
2023-02-05T23:54:22.041Z,-1.15
2023-02-05T23:56:50.017Z,-1.17
2023-02-05T23:59:18.051Z,-1.20
